createdAt,value
2019-01-12T00:03:21.449Z,19.17
2019-01-12T00:08:25.518Z,18.07
2019-01-12T00:13:30.125Z,19.87
2019-01-12T00:18:34.519Z,22.87
2019-01-12T00:23:38.909Z,20.53
2019-01-12T00:28:43.295Z,20.00
2019-01-12T00:33:47.686Z,15.57
2019-01-12T00:38:52.048Z,19.67
2019-01-12T00:43:56.444Z,17.77
2019-01-12T00:49:00.842Z,16.50
2019-01-12T00:54:05.308Z,15.20
2019-01-12T00:59:09.699Z,14.13
2019-01-12T01:04:13.849Z,15.67
2019-01-12T01:09:18.611Z,14.63
2019-01-12T01:14:23.007Z,15.90
2019-01-12T01:19:27.117Z,16.60
2019-01-12T01:24:31.265Z,16.97
2019-01-12T01:29:35.620Z,17.23
2019-01-12T01:34:40.760Z,14.10
2019-01-12T01:39:45.134Z,16.00
2019-01-12T01:44:49.306Z,14.00
2019-01-12T01:49:53.658Z,14.23
2019-01-12T01:54:58.374Z,15.50
2019-01-12T02:00:02.743Z,16.17
2019-01-12T02:05:06.885Z,14.53
2019-01-12T02:10:14.277Z,13.90
2019-01-12T02:15:19.083Z,15.37
2019-01-12T02:20:23.418Z,19.40
2019-01-12T02:25:27.786Z,17.27
2019-01-12T02:30:32.235Z,18.77
2019-01-12T02:35:36.937Z,15.47
2019-01-12T02:40:41.371Z,18.23
2019-01-12T02:45:45.474Z,18.00
2019-01-12T02:50:50.138Z,16.47
2019-01-12T02:55:54.541Z,15.45
2019-01-12T03:00:58.961Z,14.40
2019-01-12T03:06:03.063Z,16.37
2019-01-12T03:11:07.430Z,16.20
2019-01-12T03:16:11.517Z,18.23
2019-01-12T03:21:15.906Z,17.07
2019-01-12T03:26:19.967Z,18.77
2019-01-12T03:31:24.314Z,17.97
2019-01-12T03:36:28.720Z,21.43
2019-01-12T03:41:33.408Z,20.43
2019-01-12T03:46:37.873Z,22.73
2019-01-12T03:51:42.260Z,20.60
2019-01-12T03:56:46.666Z,20.53
2019-01-12T04:01:50.757Z,21.70
2019-01-12T04:06:55.131Z,20.00
2019-01-12T04:11:59.528Z,19.93
2019-01-12T04:17:03.915Z,16.77
2019-01-12T04:22:08.276Z,18.57
2019-01-12T04:27:12.393Z,17.83
2019-01-12T04:32:16.748Z,19.63
2019-01-12T04:37:21.429Z,18.07
2019-01-12T04:42:25.767Z,21.43
2019-01-12T04:47:29.824Z,19.63
2019-01-12T04:52:34.400Z,18.37
2019-01-12T04:57:38.780Z,18.40
2019-01-12T05:02:43.253Z,18.43
2019-01-12T05:07:47.587Z,18.13
2019-01-12T05:12:51.976Z,19.60
2019-01-12T05:17:56.136Z,20.57
2019-01-12T05:23:00.701Z,21.00
2019-01-12T05:28:05.140Z,16.87
2019-01-12T05:33:09.197Z,18.27
2019-01-12T05:38:13.537Z,17.90
2019-01-12T05:43:17.911Z,17.37
2019-01-12T05:48:22.638Z,15.03
2019-01-12T05:53:26.738Z,15.30
2019-01-12T05:58:31.054Z,18.07
2019-01-12T06:03:35.101Z,13.60
2019-01-12T06:08:39.433Z,15.43
2019-01-12T06:13:43.533Z,15.10
2019-01-12T06:18:47.871Z,13.70
2019-01-12T06:23:52.258Z,16.90
2019-01-12T06:28:56.349Z,15.53
2019-01-12T06:34:00.688Z,14.57
2019-01-12T06:39:08.963Z,15.80
2019-01-12T06:44:13.354Z,14.73
2019-01-12T06:49:17.800Z,14.63
2019-01-12T06:54:22.498Z,14.70
2019-01-12T06:59:26.927Z,15.10
2019-01-12T07:04:31.017Z,14.60
2019-01-12T07:09:35.347Z,12.57
2019-01-12T07:14:39.686Z,12.18
2019-01-12T07:19:44.083Z,11.37
2019-01-12T07:24:48.406Z,11.27
2019-01-12T07:29:53.056Z,10.83
2019-01-12T07:34:57.430Z,9.80
2019-01-12T07:40:01.806Z,9.85
2019-01-12T07:45:09.189Z,9.40
2019-01-12T07:50:14.954Z,12.83
2019-01-12T07:55:18.993Z,11.50
2019-01-12T08:00:23.789Z,9.50
2019-01-12T08:05:28.166Z,10.97
2019-01-12T08:10:32.457Z,13.10
2019-01-12T08:15:36.497Z,12.17
2019-01-12T08:20:40.544Z,14.00
2019-01-12T08:25:44.877Z,14.87
2019-01-12T08:30:48.960Z,15.47
2019-01-12T08:35:53.309Z,15.67
2019-01-12T08:40:57.397Z,21.27
2019-01-12T08:46:02.091Z,22.83
2019-01-12T08:51:06.178Z,19.20
2019-01-12T08:56:10.222Z,21.37
2019-01-12T09:01:14.529Z,21.27
2019-01-12T09:06:18.605Z,19.13
2019-01-12T09:11:22.645Z,19.30
2019-01-12T09:16:26.700Z,16.55
2019-01-12T09:21:31.322Z,13.93
2019-01-12T09:26:35.416Z,13.10
2019-01-12T09:31:39.512Z,15.13
2019-01-12T09:36:43.553Z,16.47
2019-01-12T09:41:47.621Z,15.23
2019-01-12T09:46:52.210Z,16.27
2019-01-12T09:51:56.304Z,16.70
2019-01-12T09:57:00.347Z,15.03
2019-01-12T10:02:04.461Z,15.40
2019-01-12T10:07:08.852Z,12.53
2019-01-12T10:12:12.933Z,13.37
2019-01-12T10:17:17.271Z,12.90
2019-01-12T10:22:28.407Z,12.40
2019-01-12T10:27:27.746Z,13.47
2019-01-12T10:32:31.856Z,12.73
2019-01-12T10:37:35.956Z,10.50
2019-01-12T10:42:40.296Z,11.17
2019-01-12T10:47:45.370Z,10.90
2019-01-12T10:52:49.441Z,10.97
2019-01-12T10:57:54.194Z,10.40
2019-01-12T11:02:58.426Z,10.73
2019-01-12T11:08:02.750Z,12.70
2019-01-12T11:13:07.442Z,13.87
2019-01-12T11:18:11.549Z,10.23
2019-01-12T11:23:15.892Z,10.37
2019-01-12T11:28:20.288Z,10.60
2019-01-12T11:33:24.409Z,11.27
2019-01-12T11:38:28.510Z,10.67
2019-01-12T11:43:32.918Z,10.10
2019-01-12T11:48:37.346Z,11.20
2019-01-12T11:53:41.772Z,10.23
2019-01-12T11:58:45.828Z,10.67
2019-01-12T12:03:51.380Z,11.00
2019-01-12T12:08:55.974Z,11.17
2019-01-12T12:14:00.081Z,11.90
2019-01-12T12:19:04.305Z,11.57
2019-01-12T12:24:08.377Z,11.07
2019-01-12T12:29:12.747Z,10.77
2019-01-12T12:34:17.093Z,9.43
2019-01-12T12:39:21.484Z,8.87
2019-01-12T12:44:26.031Z,13.03
2019-01-12T12:49:31.309Z,9.83
2019-01-12T12:54:35.374Z,8.73
2019-01-12T12:59:39.733Z,10.27
2019-01-12T13:04:44.104Z,8.43
2019-01-12T13:09:48.404Z,8.23
2019-01-12T13:14:52.477Z,8.57
2019-01-12T13:19:56.827Z,7.70
2019-01-12T13:25:00.891Z,7.03
2019-01-12T13:30:13.980Z,6.70
2019-01-12T13:35:18.413Z,6.60
2019-01-12T13:40:26.095Z,7.53
2019-01-12T13:45:30.454Z,7.13
2019-01-12T13:50:34.847Z,6.33
2019-01-12T13:55:38.954Z,5.70
2019-01-12T14:00:43.021Z,7.43
2019-01-12T14:05:47.088Z,5.17
2019-01-12T14:10:51.154Z,6.50
2019-01-12T14:15:55.483Z,4.90
2019-01-12T14:20:59.591Z,4.00
2019-01-12T14:26:03.661Z,4.50
2019-01-12T14:31:07.738Z,4.20
2019-01-12T14:36:12.371Z,4.50
2019-01-12T14:41:16.470Z,4.07
2019-01-12T14:46:20.881Z,3.67
2019-01-12T14:51:24.948Z,4.30
2019-01-12T14:56:29.300Z,4.20
2019-01-12T15:01:33.413Z,4.77
2019-01-12T15:06:37.485Z,3.53
2019-01-12T15:11:41.541Z,3.93
2019-01-12T15:16:45.897Z,6.53
2019-01-12T15:21:50.382Z,3.93
2019-01-12T15:26:54.485Z,3.20
2019-01-12T15:31:58.554Z,3.87
2019-01-12T15:37:02.905Z,4.07
2019-01-12T15:42:07.015Z,3.70
2019-01-12T15:47:11.389Z,5.33
2019-01-12T15:52:15.794Z,3.73
2019-01-12T15:57:20.197Z,3.77
2019-01-12T16:02:24.856Z,3.60
2019-01-12T16:07:29.260Z,3.20
2019-01-12T16:12:33.378Z,3.23
2019-01-12T16:17:38.067Z,3.53
2019-01-12T16:22:42.488Z,3.72
2019-01-12T16:27:46.598Z,4.30
2019-01-12T16:32:51.232Z,4.80
2019-01-12T16:37:55.689Z,5.17
2019-01-12T16:43:00.088Z,5.47
2019-01-12T16:48:04.756Z,7.47
2019-01-12T16:53:09.223Z,11.20
2019-01-12T16:58:14.145Z,9.37
2019-01-12T17:03:18.833Z,8.63
2019-01-12T17:08:23.329Z,9.50
2019-01-12T17:13:27.685Z,8.20
2019-01-12T17:18:31.803Z,9.90
2019-01-12T17:23:36.177Z,11.10
2019-01-12T17:28:40.629Z,9.23
2019-01-12T17:33:44.741Z,6.63
2019-01-12T17:38:49.100Z,7.05
2019-01-12T17:43:53.495Z,11.47
2019-01-12T17:48:57.921Z,10.50
2019-01-12T17:54:02.270Z,7.73
2019-01-12T17:59:06.387Z,15.40
2019-01-12T18:04:10.462Z,7.97
2019-01-12T18:09:14.898Z,8.20
2019-01-12T18:14:19.306Z,8.58
2019-01-12T18:19:23.407Z,7.13
2019-01-12T18:24:27.757Z,8.53
2019-01-12T18:29:32.457Z,8.33
2019-01-12T18:34:36.564Z,9.10
2019-01-12T18:39:40.706Z,9.73
2019-01-12T18:44:45.109Z,8.77
2019-01-12T18:49:49.475Z,11.03
2019-01-12T18:54:53.581Z,8.17
2019-01-12T18:59:57.946Z,9.60
2019-01-12T19:05:02.058Z,8.00
2019-01-12T19:10:09.557Z,6.15
2019-01-12T19:15:22.832Z,8.97
2019-01-12T19:20:27.365Z,7.33
2019-01-12T19:25:31.786Z,8.43
2019-01-12T19:30:36.143Z,11.80
2019-01-12T19:35:40.805Z,14.37
2019-01-12T19:40:45.168Z,14.93
2019-01-12T19:45:49.595Z,14.47
2019-01-12T19:50:55.210Z,14.47
2019-01-12T19:55:59.352Z,17.43
2019-01-12T20:01:04.035Z,17.40
2019-01-12T20:06:08.445Z,18.73
2019-01-12T20:11:13.161Z,18.67
2019-01-12T20:16:17.566Z,15.60
2019-01-12T20:21:22.328Z,16.33
2019-01-12T20:26:26.941Z,18.17
2019-01-12T20:31:50.337Z,25.80
2019-01-12T20:37:20.471Z,19.07
2019-01-12T20:42:53.432Z,14.27
2019-01-12T20:48:19.133Z,6.50
2019-01-12T20:53:32.170Z,4.80
2019-01-12T20:58:41.147Z,6.17
2019-01-12T21:03:51.330Z,6.03
2019-01-12T21:09:24.299Z,6.43
2019-01-12T21:14:37.258Z,7.80
2019-01-12T21:19:47.720Z,9.80
2019-01-12T21:24:47.406Z,17.55
2019-01-12T21:29:51.823Z,18.60
2019-01-12T21:34:56.576Z,17.87
2019-01-12T21:40:00.924Z,16.93
2019-01-12T21:45:10.188Z,14.43
2019-01-12T21:50:16.253Z,18.13
2019-01-12T21:55:21.974Z,12.90
2019-01-12T22:00:26.081Z,11.17
2019-01-12T22:05:30.158Z,12.47
2019-01-12T22:10:34.470Z,13.38
2019-01-12T22:15:38.538Z,15.70
2019-01-12T22:20:42.589Z,16.33
2019-01-12T22:25:46.933Z,14.37
2019-01-12T22:30:51.042Z,14.07
2019-01-12T22:35:55.129Z,15.73
2019-01-12T22:40:59.169Z,15.40
2019-01-12T22:46:03.524Z,18.13
2019-01-12T22:51:07.882Z,16.10
2019-01-12T22:56:11.962Z,16.53
2019-01-12T23:01:19.179Z,15.90
2019-01-12T23:06:23.990Z,17.20
2019-01-12T23:11:28.405Z,19.20
2019-01-12T23:16:32.792Z,18.10
2019-01-12T23:21:37.164Z,20.67
2019-01-12T23:26:41.258Z,25.73
2019-01-12T23:31:45.302Z,24.70
2019-01-12T23:36:49.703Z,30.75
2019-01-12T23:41:53.792Z,24.20
2019-01-12T23:46:58.129Z,26.03
2019-01-12T23:52:02.507Z,22.37
2019-01-12T23:57:06.899Z,26.82
